<?xml version="1.0" encoding="UTF-8" standalone="no" ?>
<gpx xmlns="http://www.topografix.com/GPX/1/1" xmlns:xsi="http://www.w3.org/2001/XMLSchema-instance" xsi:schemaLocation="http://www.topografix.com/GPX/1/1 http://www.topografix.com/GPX/1/1/gpx.xsd" version="1.1" creator="VisuGPX - https://www.visugpx.com">
  <metadata>
    <name>14710619-ramillard</name>
    <desc><![CDATA[Circuit non balisé, à faire avec la carte en main ou GPS de randonnée.]]></desc>
  </metadata>
  <trk>
    <name><![CDATA[14710619-ramillard]]></name>
    <trkseg>
      <trkpt lat="46.03722" lon="3.73174">
        <ele>531</ele>
        <time>2022-05-07T10:19:03Z</time>
      </trkpt>
      <trkpt lat="46.03696" lon="3.7311">
        <ele>536</ele>
        <time>2022-05-07T10:20:12Z</time>
      </trkpt>
      <trkpt lat="46.0372" lon="3.73022">
        <ele>532</ele>
        <time>2022-05-07T10:21:39Z</time>
      </trkpt>
      <trkpt lat="46.03688" lon="3.72888">
        <ele>526</ele>
        <time>2022-05-07T10:23:51Z</time>
      </trkpt>
      <trkpt lat="46.03641" lon="3.72867">
        <ele>528</ele>
        <time>2022-05-07T10:24:56Z</time>
      </trkpt>
      <trkpt lat="46.03583" lon="3.72874">
        <ele>533</ele>
        <time>2022-05-07T10:26:14Z</time>
      </trkpt>
      <trkpt lat="46.03462" lon="3.72917">
        <ele>543</ele>
        <time>2022-05-07T10:29:00Z</time>
      </trkpt>
      <trkpt lat="46.03377" lon="3.72876">
        <ele>540</ele>
        <time>2022-05-07T10:31:00Z</time>
      </trkpt>
      <trkpt lat="46.03312" lon="3.72885">
        <ele>543</ele>
        <time>2022-05-07T10:32:27Z</time>
      </trkpt>
      <trkpt lat="46.03252" lon="3.72879">
        <ele>541</ele>
        <time>2022-05-07T10:33:47Z</time>
      </trkpt>
      <trkpt lat="46.03199" lon="3.72841">
        <ele>538</ele>
        <time>2022-05-07T10:35:06Z</time>
      </trkpt>
      <trkpt lat="46.03124" lon="3.72784">
        <ele>541</ele>
        <time>2022-05-07T10:36:59Z</time>
      </trkpt>
      <trkpt lat="46.02996" lon="3.7278">
        <ele>553</ele>
        <time>2022-05-07T10:39:50Z</time>
      </trkpt>
      <trkpt lat="46.02961" lon="3.72755">
        <ele>557</ele>
        <time>2022-05-07T10:40:42Z</time>
      </trkpt>
      <trkpt lat="46.02953" lon="3.72839">
        <ele>562</ele>
        <time>2022-05-07T10:42:01Z</time>
      </trkpt>
      <trkpt lat="46.02879" lon="3.72838">
        <ele>574</ele>
        <time>2022-05-07T10:43:40Z</time>
      </trkpt>
      <trkpt lat="46.02814" lon="3.72916">
        <ele>591</ele>
        <time>2022-05-07T10:45:33Z</time>
      </trkpt>
      <trkpt lat="46.02759" lon="3.72985">
        <ele>598</ele>
        <time>2022-05-07T10:47:10Z</time>
      </trkpt>
      <trkpt lat="46.02733" lon="3.73054">
        <ele>597</ele>
        <time>2022-05-07T10:48:23Z</time>
      </trkpt>
      <trkpt lat="46.02603" lon="3.73062">
        <ele>606</ele>
        <time>2022-05-07T10:51:16Z</time>
      </trkpt>
      <trkpt lat="46.02523" lon="3.73015">
        <ele>605</ele>
        <time>2022-05-07T10:53:12Z</time>
      </trkpt>
      <trkpt lat="46.02488" lon="3.72885">
        <ele>611</ele>
        <time>2022-05-07T10:55:21Z</time>
      </trkpt>
      <trkpt lat="46.02325" lon="3.72805">
        <ele>619</ele>
        <time>2022-05-07T10:59:11Z</time>
      </trkpt>
      <trkpt lat="46.02255" lon="3.72856">
        <ele>618</ele>
        <time>2022-05-07T11:00:55Z</time>
      </trkpt>
      <trkpt lat="46.02232" lon="3.7287">
        <ele>617</ele>
        <time>2022-05-07T11:01:29Z</time>
      </trkpt>
      <trkpt lat="46.02208" lon="3.72918">
        <ele>612</ele>
        <time>2022-05-07T11:02:23Z</time>
      </trkpt>
      <trkpt lat="46.02136" lon="3.72925">
        <ele>611</ele>
        <time>2022-05-07T11:04:00Z</time>
      </trkpt>
      <trkpt lat="46.02059" lon="3.72815">
        <ele>615</ele>
        <time>2022-05-07T11:06:24Z</time>
      </trkpt>
      <trkpt lat="46.01986" lon="3.72618">
        <ele>622</ele>
        <time>2022-05-07T11:09:51Z</time>
      </trkpt>
      <trkpt lat="46.01984" lon="3.72468">
        <ele>631</ele>
        <time>2022-05-07T11:12:10Z</time>
      </trkpt>
      <trkpt lat="46.02027" lon="3.72369">
        <ele>640</ele>
        <time>2022-05-07T11:13:59Z</time>
      </trkpt>
      <trkpt lat="46.02102" lon="3.72405">
        <ele>643</ele>
        <time>2022-05-07T11:15:44Z</time>
      </trkpt>
      <trkpt lat="46.02114" lon="3.72116">
        <ele>667</ele>
        <time>2022-05-07T11:20:12Z</time>
      </trkpt>
      <trkpt lat="46.02026" lon="3.72054">
        <ele>671</ele>
        <time>2022-05-07T11:22:23Z</time>
      </trkpt>
      <trkpt lat="46.01846" lon="3.71979">
        <ele>688</ele>
        <time>2022-05-07T11:26:33Z</time>
      </trkpt>
      <trkpt lat="46.01829" lon="3.72134">
        <ele>670</ele>
        <time>2022-05-07T11:28:59Z</time>
      </trkpt>
      <trkpt lat="46.01741" lon="3.72307">
        <ele>655</ele>
        <time>2022-05-07T11:32:17Z</time>
      </trkpt>
      <trkpt lat="46.01726" lon="3.72462">
        <ele>652</ele>
        <time>2022-05-07T11:34:42Z</time>
      </trkpt>
      <trkpt lat="46.01623" lon="3.72719">
        <ele>645</ele>
        <time>2022-05-07T11:39:17Z</time>
      </trkpt>
      <trkpt lat="46.01485" lon="3.72704">
        <ele>636</ele>
        <time>2022-05-07T11:42:22Z</time>
      </trkpt>
      <trkpt lat="46.01458" lon="3.72899">
        <ele>628</ele>
        <time>2022-05-07T11:45:26Z</time>
      </trkpt>
      <trkpt lat="46.01451" lon="3.73024">
        <ele>627</ele>
        <time>2022-05-07T11:47:22Z</time>
      </trkpt>
      <trkpt lat="46.01386" lon="3.73134">
        <ele>625</ele>
        <time>2022-05-07T11:49:36Z</time>
      </trkpt>
      <trkpt lat="46.01373" lon="3.73267">
        <ele>611</ele>
        <time>2022-05-07T11:51:41Z</time>
      </trkpt>
      <trkpt lat="46.01398" lon="3.73397">
        <ele>593</ele>
        <time>2022-05-07T11:53:46Z</time>
      </trkpt>
      <trkpt lat="46.01374" lon="3.73436">
        <ele>588</ele>
        <time>2022-05-07T11:54:34Z</time>
      </trkpt>
      <trkpt lat="46.01386" lon="3.73488">
        <ele>585</ele>
        <time>2022-05-07T11:55:25Z</time>
      </trkpt>
      <trkpt lat="46.01327" lon="3.73484">
        <ele>584</ele>
        <time>2022-05-07T11:56:44Z</time>
      </trkpt>
      <trkpt lat="46.01285" lon="3.73486">
        <ele>589</ele>
        <time>2022-05-07T11:57:40Z</time>
      </trkpt>
      <trkpt lat="46.01254" lon="3.73513">
        <ele>590</ele>
        <time>2022-05-07T11:58:28Z</time>
      </trkpt>
      <trkpt lat="46.01217" lon="3.73499">
        <ele>595</ele>
        <time>2022-05-07T11:59:19Z</time>
      </trkpt>
      <trkpt lat="46.01222" lon="3.73567">
        <ele>590</ele>
        <time>2022-05-07T12:00:23Z</time>
      </trkpt>
      <trkpt lat="46.01097" lon="3.73596">
        <ele>601</ele>
        <time>2022-05-07T12:03:12Z</time>
      </trkpt>
      <trkpt lat="46.01149" lon="3.73659">
        <ele>595</ele>
        <time>2022-05-07T12:04:42Z</time>
      </trkpt>
      <trkpt lat="46.01129" lon="3.73787">
        <ele>603</ele>
        <time>2022-05-07T12:06:44Z</time>
      </trkpt>
      <trkpt lat="46.01072" lon="3.73917">
        <ele>602</ele>
        <time>2022-05-07T12:09:06Z</time>
      </trkpt>
      <trkpt lat="46.01067" lon="3.7409">
        <ele>598</ele>
        <time>2022-05-07T12:11:47Z</time>
      </trkpt>
      <trkpt lat="46.01102" lon="3.74195">
        <ele>594</ele>
        <time>2022-05-07T12:13:35Z</time>
      </trkpt>
      <trkpt lat="46.01142" lon="3.74332">
        <ele>586</ele>
        <time>2022-05-07T12:15:52Z</time>
      </trkpt>
      <trkpt lat="46.01174" lon="3.74387">
        <ele>578</ele>
        <time>2022-05-07T12:16:59Z</time>
      </trkpt>
      <trkpt lat="46.0115" lon="3.74462">
        <ele>570</ele>
        <time>2022-05-07T12:18:15Z</time>
      </trkpt>
      <trkpt lat="46.0125" lon="3.74479">
        <ele>561</ele>
        <time>2022-05-07T12:20:30Z</time>
      </trkpt>
      <trkpt lat="46.013" lon="3.74584">
        <ele>552</ele>
        <time>2022-05-07T12:22:28Z</time>
      </trkpt>
      <trkpt lat="46.01297" lon="3.74675">
        <ele>560</ele>
        <time>2022-05-07T12:23:52Z</time>
      </trkpt>
      <trkpt lat="46.01365" lon="3.74691">
        <ele>565</ele>
        <time>2022-05-07T12:25:24Z</time>
      </trkpt>
      <trkpt lat="46.01418" lon="3.7462">
        <ele>562</ele>
        <time>2022-05-07T12:27:01Z</time>
      </trkpt>
      <trkpt lat="46.01613" lon="3.74476">
        <ele>557</ele>
        <time>2022-05-07T12:31:53Z</time>
      </trkpt>
      <trkpt lat="46.01836" lon="3.74282">
        <ele>548</ele>
        <time>2022-05-07T12:37:41Z</time>
      </trkpt>
      <trkpt lat="46.0197" lon="3.74213">
        <ele>549</ele>
        <time>2022-05-07T12:40:51Z</time>
      </trkpt>
      <trkpt lat="46.02079" lon="3.74209">
        <ele>552</ele>
        <time>2022-05-07T12:43:16Z</time>
      </trkpt>
      <trkpt lat="46.02117" lon="3.74267">
        <ele>558</ele>
        <time>2022-05-07T12:44:30Z</time>
      </trkpt>
      <trkpt lat="46.02107" lon="3.74321">
        <ele>563</ele>
        <time>2022-05-07T12:45:22Z</time>
      </trkpt>
      <trkpt lat="46.02215" lon="3.74328">
        <ele>566</ele>
        <time>2022-05-07T12:47:46Z</time>
      </trkpt>
      <trkpt lat="46.02226" lon="3.7429">
        <ele>566</ele>
        <time>2022-05-07T12:48:24Z</time>
      </trkpt>
      <trkpt lat="46.02325" lon="3.74285">
        <ele>577</ele>
        <time>2022-05-07T12:50:37Z</time>
      </trkpt>
      <trkpt lat="46.02377" lon="3.7418">
        <ele>572</ele>
        <time>2022-05-07T12:52:36Z</time>
      </trkpt>
      <trkpt lat="46.02479" lon="3.74174">
        <ele>580</ele>
        <time>2022-05-07T12:54:52Z</time>
      </trkpt>
      <trkpt lat="46.02592" lon="3.74193">
        <ele>584</ele>
        <time>2022-05-07T12:57:24Z</time>
      </trkpt>
      <trkpt lat="46.02613" lon="3.7423">
        <ele>588</ele>
        <time>2022-05-07T12:58:08Z</time>
      </trkpt>
      <trkpt lat="46.02645" lon="3.74272">
        <ele>588</ele>
        <time>2022-05-07T12:59:06Z</time>
      </trkpt>
      <trkpt lat="46.02676" lon="3.74242">
        <ele>580</ele>
        <time>2022-05-07T12:59:56Z</time>
      </trkpt>
      <trkpt lat="46.02768" lon="3.74248">
        <ele>589</ele>
        <time>2022-05-07T13:01:59Z</time>
      </trkpt>
      <trkpt lat="46.02836" lon="3.74144">
        <ele>578</ele>
        <time>2022-05-07T13:04:11Z</time>
      </trkpt>
      <trkpt lat="46.02867" lon="3.74084">
        <ele>566</ele>
        <time>2022-05-07T13:05:21Z</time>
      </trkpt>
      <trkpt lat="46.02966" lon="3.74079">
        <ele>563</ele>
        <time>2022-05-07T13:07:33Z</time>
      </trkpt>
      <trkpt lat="46.03036" lon="3.74087">
        <ele>566</ele>
        <time>2022-05-07T13:09:07Z</time>
      </trkpt>
      <trkpt lat="46.03033" lon="3.74053">
        <ele>561</ele>
        <time>2022-05-07T13:09:38Z</time>
      </trkpt>
      <trkpt lat="46.03088" lon="3.73966">
        <ele>550</ele>
        <time>2022-05-07T13:11:27Z</time>
      </trkpt>
      <trkpt lat="46.03162" lon="3.73994">
        <ele>560</ele>
        <time>2022-05-07T13:13:09Z</time>
      </trkpt>
      <trkpt lat="46.0322" lon="3.7391">
        <ele>549</ele>
        <time>2022-05-07T13:14:59Z</time>
      </trkpt>
      <trkpt lat="46.03277" lon="3.73842">
        <ele>540</ele>
        <time>2022-05-07T13:16:38Z</time>
      </trkpt>
      <trkpt lat="46.03297" lon="3.73754">
        <ele>530</ele>
        <time>2022-05-07T13:18:04Z</time>
      </trkpt>
      <trkpt lat="46.03422" lon="3.73707">
        <ele>530</ele>
        <time>2022-05-07T13:20:56Z</time>
      </trkpt>
      <trkpt lat="46.03507" lon="3.73588">
        <ele>529</ele>
        <time>2022-05-07T13:23:34Z</time>
      </trkpt>
      <trkpt lat="46.03615" lon="3.73549">
        <ele>533</ele>
        <time>2022-05-07T13:26:03Z</time>
      </trkpt>
      <trkpt lat="46.03663" lon="3.73466">
        <ele>530</ele>
        <time>2022-05-07T13:27:43Z</time>
      </trkpt>
      <trkpt lat="46.03628" lon="3.73397">
        <ele>528</ele>
        <time>2022-05-07T13:29:02Z</time>
      </trkpt>
      <trkpt lat="46.03677" lon="3.73256">
        <ele>531</ele>
        <time>2022-05-07T13:31:28Z</time>
      </trkpt>
      <trkpt lat="46.03719" lon="3.73192">
        <ele>531</ele>
        <time>2022-05-07T13:32:50Z</time>
      </trkpt>
    </trkseg>
  </trk>
</gpx>